Terminal Aerodrome Forecast
Issued by NWS

Home | Current Version | Previous Version | Text Only | Print | Product List | Glossary On
Versions: 1 2 3 4 5 6 7 8 9 10 11 12 13 14 15 16 17 18 19 20 21
000
FTUS43 KDLH 170500
TAFHYR
TAF
KHYR 170533Z 1706/1806 03009KT 3SM -SN BR SCT012 OVC025
      TEMPO 1707/1711 1 1/2SM -SN OVC012
     FM171200 36006KT 5SM -SN OVC025
     FM171800 32008KT P6SM BKN025 OVC050
     FM172300 32005KT P6SM SCT060=

USA.gov is the U.S. government's official web portal to all federal, state and local government web resources and services.